sensor_id;sensor_type;location;lat;lon;timestamp;pressure;altitude;pressure_sealevel;temperature;humidity
54918;BME280;40818;50.562;7.454;2023-03-14T00:00:07;95563.28;;;8.69;100.00
54918;BME280;40818;50.562;7.454;2023-03-14T00:10:14;95579.91;;;8.57;100.00
54918;BME280;40818;50.562;7.454;2023-03-14T00:20:18;95579.41;;;8.53;100.00
54918;BME280;40818;50.562;7.454;2023-03-14T00:30:24;95587.56;;;8.49;100.00
54918;BME280;40818;50.562;7.454;2023-03-14T00:40:27;95570.69;;;8.35;100.00
54918;BME280;40818;50.562;7.454;2023-03-14T00:50:33;95556.31;;;8.23;100.00
54918;BME280;40818;50.562;7.454;2023-03-14T01:00:37;95537.25;;;8.24;100.00
54918;BME280;40818;50.562;7.454;2023-03-14T01:10:43;95537.81;;;8.17;100.00
54918;BME280;40818;50.562;7.454;2023-03-14T01:20:46;95558.50;;;8.17;100.00
54918;BME280;40818;50.562;7.454;2023-03-14T01:30:52;95543.00;;;8.17;100.00
54918;BME280;40818;50.562;7.454;2023-03-14T01:40:56;95547.88;;;8.11;100.00
54918;BME280;40818;50.562;7.454;2023-03-14T01:51:03;95529.69;;;8.02;100.00
54918;BME280;40818;50.562;7.454;2023-03-14T02:01:09;95535.69;;;8.03;100.00
54918;BME280;40818;50.562;7.454;2023-03-14T02:11:17;95515.94;;;8.02;100.00
54918;BME280;40818;50.562;7.454;2023-03-14T02:21:40;95499.91;;;7.98;100.00
54918;BME280;40818;50.562;7.454;2023-03-14T02:31:52;95491.34;;;7.98;100.00
54918;BME280;40818;50.562;7.454;2023-03-14T02:41:56;95473.66;;;7.93;100.00
54918;BME280;40818;50.562;7.454;2023-03-14T02:52:02;95467.41;;;7.96;100.00
54918;BME280;40818;50.562;7.454;2023-03-14T03:02:05;95445.66;;;7.89;100.00
54918;BME280;40818;50.562;7.454;2023-03-14T03:12:12;95431.28;;;7.76;100.00
54918;BME280;40818;50.562;7.454;2023-03-14T03:22:15;95430.50;;;7.66;100.00
54918;BME280;40818;50.562;7.454;2023-03-14T03:32:21;95426.28;;;7.55;100.00
54918;BME280;40818;50.562;7.454;2023-03-14T03:42:26;95416.09;;;7.54;100.00
54918;BME280;40818;50.562;7.454;2023-03-14T03:52:33;95410.50;;;7.58;100.00
54918;BME280;40818;50.562;7.454;2023-03-14T04:02:36;95411.59;;;7.56;100.00
54918;BME280;40818;50.562;7.454;2023-03-14T04:12:42;95407.13;;;7.58;100.00
54918;BME280;40818;50.562;7.454;2023-03-14T04:22:51;95414.31;;;7.54;100.00
54918;BME280;40818;50.562;7.454;2023-03-14T04:32:57;95396.53;;;7.61;100.00
54918;BME280;40818;50.562;7.454;2023-03-14T04:43:02;95390.69;;;7.59;100.00
54918;BME280;40818;50.562;7.454;2023-03-14T04:53:09;95393.66;;;7.54;100.00
54918;BME280;40818;50.562;7.454;2023-03-14T05:03:16;95372.34;;;7.52;100.00
54918;BME280;40818;50.562;7.454;2023-03-14T05:13:42;95360.56;;;7.40;100.00
54918;BME280;40818;50.562;7.454;2023-03-14T05:24:01;95353.78;;;7.29;100.00
54918;BME280;40818;50.562;7.454;2023-03-14T05:34:46;95353.00;;;7.18;100.00
54918;BME280;40818;50.562;7.454;2023-03-14T05:45:11;95331.28;;;7.11;100.00
54918;BME280;40818;50.562;7.454;2023-03-14T05:55:37;95328.72;;;7.02;100.00
54918;BME280;40818;50.562;7.454;2023-03-14T06:05:43;95325.16;;;7.03;100.00
54918;BME280;40818;50.562;7.454;2023-03-14T06:15:49;95322.19;;;7.07;100.00
54918;BME280;40818;50.562;7.454;2023-03-14T06:25:53;95328.00;;;7.09;100.00
54918;BME280;40818;50.562;7.454;2023-03-14T06:36:01;95323.53;;;7.11;100.00
54918;BME280;40818;50.562;7.454;2023-03-14T06:46:05;95322.31;;;7.15;100.00
54918;BME280;40818;50.562;7.454;2023-03-14T06:56:14;95319.31;;;7.20;100.00
54918;BME280;40818;50.562;7.454;2023-03-14T07:06:18;95332.19;;;7.30;100.00
54918;BME280;40818;50.562;7.454;2023-03-14T07:16:24;95335.28;;;7.43;100.00
54918;BME280;40818;50.562;7.454;2023-03-14T07:26:29;95339.72;;;7.61;100.00
54918;BME280;40818;50.562;7.454;2023-03-14T07:36:36;95339.03;;;7.68;100.00
54918;BME280;40818;50.562;7.454;2023-03-14T07:46:40;95343.81;;;7.91;100.00
54918;BME280;40818;50.562;7.454;2023-03-14T07:56:46;95350.44;;;8.03;100.00
54918;BME280;40818;50.562;7.454;2023-03-14T08:06:49;95367.78;;;8.39;100.00
54918;BME280;40818;50.562;7.454;2023-03-14T08:16:57;95359.28;;;8.57;100.00
54918;BME280;40818;50.562;7.454;2023-03-14T08:27:00;95349.34;;;8.98;100.00
54918;BME280;40818;50.562;7.454;2023-03-14T08:37:07;95351.69;;;9.09;100.00
54918;BME280;40818;50.562;7.454;2023-03-14T08:47:13;95352.84;;;9.33;100.00
54918;BME280;40818;50.562;7.454;2023-03-14T08:57:19;95369.63;;;9.73;100.00
54918;BME280;40818;50.562;7.454;2023-03-14T09:07:27;95366.03;;;10.00;100.00
54918;BME280;40818;50.562;7.454;2023-03-14T09:17:33;95380.06;;;10.24;100.00
54918;BME280;40818;50.562;7.454;2023-03-14T09:27:37;95370.28;;;10.10;100.00
54918;BME280;40818;50.562;7.454;2023-03-14T09:37:43;95384.72;;;10.12;100.00
54918;BME280;40818;50.562;7.454;2023-03-14T09:47:47;95393.53;;;9.93;100.00
54918;BME280;40818;50.562;7.454;2023-03-14T09:57:57;95411.13;;;9.81;100.00
54918;BME280;40818;50.562;7.454;2023-03-14T10:08:02;95429.91;;;9.57;100.00
54918;BME280;40818;50.562;7.454;2023-03-14T10:18:12;95457.38;;;9.32;100.00
54918;BME280;40818;50.562;7.454;2023-03-14T10:28:24;95507.38;;;8.86;100.00
54918;BME280;40818;50.562;7.454;2023-03-14T10:38:32;95559.06;;;7.72;100.00
54918;BME280;40818;50.562;7.454;2023-03-14T10:48:37;95582.66;;;7.18;100.00
54918;BME280;40818;50.562;7.454;2023-03-14T10:58:46;95623.00;;;6.89;100.00
54918;BME280;40818;50.562;7.454;2023-03-14T11:08:53;95650.03;;;6.42;100.00
54918;BME280;40818;50.562;7.454;2023-03-14T11:19:15;95674.66;;;6.35;100.00
54918;BME280;40818;50.562;7.454;2023-03-14T11:29:28;95717.38;;;6.17;100.00
54918;BME280;40818;50.562;7.454;2023-03-14T11:39:41;95735.09;;;6.10;100.00
54918;BME280;40818;50.562;7.454;2023-03-14T11:49:48;95750.31;;;6.02;100.00
54918;BME280;40818;50.562;7.454;2023-03-14T12:00:02;95784.38;;;6.05;100.00
54918;BME280;40818;50.562;7.454;2023-03-14T12:10:13;95793.97;;;6.14;100.00
54918;BME280;40818;50.562;7.454;2023-03-14T12:20:20;95835.81;;;6.51;100.00
54918;BME280;40818;50.562;7.454;2023-03-14T12:30:27;95873.78;;;6.48;100.00
54918;BME280;40818;50.562;7.454;2023-03-14T12:40:37;95894.28;;;6.94;100.00
54918;BME280;40818;50.562;7.454;2023-03-14T12:50:44;95941.50;;;6.62;100.00
54918;BME280;40818;50.562;7.454;2023-03-14T13:00:55;96004.50;;;6.01;100.00
54918;BME280;40818;50.562;7.454;2023-03-14T13:11:01;96026.22;;;5.86;100.00
54918;BME280;40818;50.562;7.454;2023-03-14T13:21:12;96049.81;;;5.68;100.00
54918;BME280;40818;50.562;7.454;2023-03-14T13:31:21;96079.06;;;5.67;100.00
54918;BME280;40818;50.562;7.454;2023-03-14T13:41:28;96096.16;;;5.68;100.00
54918;BME280;40818;50.562;7.454;2023-03-14T13:51:32;96119.59;;;5.52;100.00
54918;BME280;40818;50.562;7.454;2023-03-14T14:01:38;96166.72;;;5.16;100.00
54918;BME280;40818;50.562;7.454;2023-03-14T14:11:44;96207.88;;;4.77;100.00
54918;BME280;40818;50.562;7.454;2023-03-14T14:21:52;96247.25;;;4.65;100.00
54918;BME280;40818;50.562;7.454;2023-03-14T14:32:01;96280.44;;;4.55;100.00
54918;BME280;40818;50.562;7.454;2023-03-14T14:42:13;96298.97;;;4.60;100.00
54918;BME280;40818;50.562;7.454;2023-03-14T14:52:19;96319.50;;;4.87;100.00
54918;BME280;40818;50.562;7.454;2023-03-14T15:02:35;96358.97;;;4.73;100.00
54918;BME280;40818;50.562;7.454;2023-03-14T15:12:44;96387.78;;;4.37;100.00
54918;BME280;40818;50.562;7.454;2023-03-14T15:22:51;96414.97;;;4.26;100.00
54918;BME280;40818;50.562;7.454;2023-03-14T15:32:54;96438.47;;;4.06;100.00
54918;BME280;40818;50.562;7.454;2023-03-14T15:43:00;96458.53;;;3.70;100.00
54918;BME280;40818;50.562;7.454;2023-03-14T15:53:03;96478.53;;;3.49;100.00
54918;BME280;40818;50.562;7.454;2023-03-14T16:03:10;96496.19;;;3.39;100.00
54918;BME280;40818;50.562;7.454;2023-03-14T16:13:14;96512.03;;;3.16;100.00
54918;BME280;40818;50.562;7.454;2023-03-14T16:23:20;96532.81;;;3.11;100.00
54918;BME280;40818;50.562;7.454;2023-03-14T16:33:24;96556.13;;;3.06;100.00
54918;BME280;40818;50.562;7.454;2023-03-14T16:43:30;96575.47;;;2.96;100.00
54918;BME280;40818;50.562;7.454;2023-03-14T16:53:36;96599.47;;;2.95;100.00
54918;BME280;40818;50.562;7.454;2023-03-14T17:03:43;96616.22;;;2.85;100.00
54918;BME280;40818;50.562;7.454;2023-03-14T17:13:47;96632.75;;;2.79;100.00
54918;BME280;40818;50.562;7.454;2023-03-14T17:23:53;96651.13;;;2.71;100.00
54918;BME280;40818;50.562;7.454;2023-03-14T17:33:58;96691.66;;;2.63;100.00
54918;BME280;40818;50.562;7.454;2023-03-14T17:44:04;96725.72;;;2.30;100.00
54918;BME280;40818;50.562;7.454;2023-03-14T17:54:09;96737.41;;;2.36;100.00
54918;BME280;40818;50.562;7.454;2023-03-14T18:04:15;96773.50;;;2.49;100.00
54918;BME280;40818;50.562;7.454;2023-03-14T18:14:19;96788.19;;;2.45;100.00
54918;BME280;40818;50.562;7.454;2023-03-14T18:24:26;96796.41;;;2.52;100.00
54918;BME280;40818;50.562;7.454;2023-03-14T18:34:29;96822.31;;;2.46;100.00
54918;BME280;40818;50.562;7.454;2023-03-14T18:44:35;96842.41;;;2.36;100.00
54918;BME280;40818;50.562;7.454;2023-03-14T18:54:41;96851.84;;;2.35;100.00
54918;BME280;40818;50.562;7.454;2023-03-14T19:04:47;96869.91;;;2.32;100.00
54918;BME280;40818;50.562;7.454;2023-03-14T19:14:50;96885.63;;;2.25;100.00
54918;BME280;40818;50.562;7.454;2023-03-14T19:24:57;96907.91;;;2.03;100.00
54918;BME280;40818;50.562;7.454;2023-03-14T19:35:00;96918.88;;;1.86;100.00
54918;BME280;40818;50.562;7.454;2023-03-14T19:45:08;96938.53;;;1.86;100.00
54918;BME280;40818;50.562;7.454;2023-03-14T19:55:12;96961.84;;;1.80;100.00
54918;BME280;40818;50.562;7.454;2023-03-14T20:05:18;96982.81;;;1.67;100.00
54918;BME280;40818;50.562;7.454;2023-03-14T20:15:22;97014.69;;;1.60;100.00
54918;BME280;40818;50.562;7.454;2023-03-14T20:25:28;97045.59;;;1.54;100.00
54918;BME280;40818;50.562;7.454;2023-03-14T20:35:31;97070.13;;;1.38;100.00
54918;BME280;40818;50.562;7.454;2023-03-14T20:45:38;97079.59;;;1.35;100.00
54918;BME280;40818;50.562;7.454;2023-03-14T20:55:41;97108.63;;;1.34;100.00
54918;BME280;40818;50.562;7.454;2023-03-14T21:05:48;97118.28;;;1.26;100.00
54918;BME280;40818;50.562;7.454;2023-03-14T21:15:52;97132.44;;;1.13;100.00
54918;BME280;40818;50.562;7.454;2023-03-14T21:25:58;97131.16;;;1.01;100.00
54918;BME280;40818;50.562;7.454;2023-03-14T21:36:01;97140.22;;;0.86;100.00
54918;BME280;40818;50.562;7.454;2023-03-14T21:46:08;97171.53;;;0.67;100.00
54918;BME280;40818;50.562;7.454;2023-03-14T21:56:11;97188.97;;;0.56;100.00
54918;BME280;40818;50.562;7.454;2023-03-14T22:06:18;97207.97;;;0.47;100.00
54918;BME280;40818;50.562;7.454;2023-03-14T22:16:21;97214.53;;;0.29;100.00
54918;BME280;40818;50.562;7.454;2023-03-14T22:26:27;97212.69;;;0.06;100.00
54918;BME280;40818;50.562;7.454;2023-03-14T22:36:31;97227.53;;;-0.05;100.00
54918;BME280;40818;50.562;7.454;2023-03-14T22:46:36;97237.28;;;-0.18;100.00
54918;BME280;40818;50.562;7.454;2023-03-14T22:56:40;97247.91;;;-0.33;100.00
54918;BME280;40818;50.562;7.454;2023-03-14T23:06:46;97250.19;;;-0.53;100.00
54918;BME280;40818;50.562;7.454;2023-03-14T23:16:50;97247.81;;;-0.60;100.00
54918;BME280;40818;50.562;7.454;2023-03-14T23:26:57;97262.47;;;-0.67;100.00
54918;BME280;40818;50.562;7.454;2023-03-14T23:37:01;97272.00;;;-0.74;100.00
54918;BME280;40818;50.562;7.454;2023-03-14T23:47:08;97284.91;;;-0.80;100.00
54918;BME280;40818;50.562;7.454;2023-03-14T23:57:11;97274.09;;;-0.88;100.00
